Time;durP1;ratioP1;P1;durP2;ratioP2;P2;SDS_P1;SDS_P2;PMS_P1;PMS_P2;Temp;Humidity;BMP_temperature;BMP_pressure;BME280_temperature;BME280_humidity;BME280_pressure;Samples;Min_cycle;Max_cycle;Signal;HPM_P1;HPM_P2
2022/10/06 00:00:01;;;;;;;1.65;0.57;;;23.40;55.00;;;;;;5049760;28;20044;-45
2022/10/06 00:02:34;;;;;;;2.38;0.10;;;23.40;54.90;;;;;;5060448;28;20033;-44
2022/10/06 00:05:01;;;;;;;2.53;1.10;;;23.30;54.90;;;;;;5068572;28;20049;-44
2022/10/06 00:07:28;;;;;;;4.97;0.43;;;23.30;54.80;;;;;;5067105;28;20051;-44
2022/10/06 00:09:56;;;;;;;1.05;0.20;;;23.30;54.80;;;;;;5068449;28;20123;-45
2022/10/06 00:12:23;;;;;;;1.10;0.43;;;23.30;54.70;;;;;;5063002;28;20088;-45
2022/10/06 00:14:50;;;;;;;5.32;0.10;;;23.30;54.70;;;;;;5068041;28;20127;-44
2022/10/06 00:17:18;;;;;;;1.90;0.10;;;23.30;54.70;;;;;;5067972;28;20074;-44
2022/10/06 00:19:45;;;;;;;2.38;0.20;;;23.30;54.80;;;;;;5049854;28;20521;-44
2022/10/06 00:22:12;;;;;;;2.85;0.00;;;23.30;54.70;;;;;;5050306;28;20040;-44
2022/10/06 00:24:39;;;;;;;2.83;0.90;;;23.30;54.70;;;;;;5066912;28;20139;-43
2022/10/06 00:27:07;;;;;;;3.80;0.10;;;23.30;54.80;;;;;;5051878;28;20047;-45
2022/10/06 00:29:35;;;;;;;0.82;0.10;;;23.30;54.80;;;;;;5061904;28;20036;-44
2022/10/06 00:32:02;;;;;;;2.05;0.40;;;23.20;54.70;;;;;;5048445;28;20048;-44
2022/10/06 00:34:29;;;;;;;1.67;0.17;;;23.20;54.60;;;;;;5048777;28;20052;-44
2022/10/06 00:36:55;;;;;;;1.30;0.10;;;23.20;54.60;;;;;;5052762;28;20059;-44
2022/10/06 00:39:22;;;;;;;1.23;0.13;;;23.20;54.60;;;;;;5047661;28;20580;-44
2022/10/06 00:41:50;;;;;;;0.88;0.10;;;23.20;54.50;;;;;;5066012;28;20501;-44
2022/10/06 00:44:18;;;;;;;2.55;0.75;;;23.20;54.50;;;;;;5067723;28;20450;-44
2022/10/06 00:46:49;;;;;;;2.47;0.30;;;23.10;54.40;;;;;;5064393;28;20033;-45
2022/10/06 00:49:20;;;;;;;4.28;0.25;;;23.10;54.40;;;;;;5053316;28;20063;-44
2022/10/06 00:51:51;;;;;;;1.38;0.57;;;23.10;54.40;;;;;;5054603;28;20102;-45
2022/10/06 00:54:19;;;;;;;2.00;0.30;;;23.10;54.30;;;;;;5049236;28;21106;-43
2022/10/06 00:56:46;;;;;;;0.52;0.00;;;23.10;54.30;;;;;;5066612;28;20054;-44
2022/10/06 00:59:18;;;;;;;3.47;0.30;;;23.10;54.30;;;;;;5058670;28;20712;-44
2022/10/06 01:01:51;;;;;;;2.45;0.17;;;23.10;54.30;;;;;;5046715;28;20048;-45
2022/10/06 01:04:18;;;;;;;3.58;0.10;;;23.00;54.20;;;;;;5047261;28;20487;-44
2022/10/06 01:06:49;;;;;;;1.13;0.10;;;23.00;54.10;;;;;;5048548;28;20048;-50
2022/10/06 01:09:18;;;;;;;1.90;0.10;;;23.00;54.10;;;;;;5048176;28;20119;-44
2022/10/06 01:11:48;;;;;;;2.95;0.10;;;23.00;54.10;;;;;;5063454;28;20086;-44
2022/10/06 01:14:17;;;;;;;1.33;0.10;;;22.90;54.00;;;;;;5065328;28;20047;-44
2022/10/06 01:16:51;;;;;;;0.90;0.03;;;22.90;54.00;;;;;;5065668;28;20052;-43
2022/10/06 01:19:34;;;;;;;3.05;0.45;;;22.90;54.00;;;;;;5056306;28;20051;-44
2022/10/06 01:22:04;;;;;;;1.80;0.10;;;22.90;53.90;;;;;;5065963;28;20040;-44
2022/10/06 01:24:36;;;;;;;2.05;0.55;;;22.90;53.90;;;;;;5066057;28;20056;-43
2022/10/06 01:27:05;;;;;;;3.60;0.17;;;22.90;53.90;;;;;;5062170;28;20087;-43
2022/10/06 01:29:33;;;;;;;2.47;0.10;;;22.90;53.80;;;;;;5053439;28;20041;-44
2022/10/06 01:32:01;;;;;;;2.65;0.20;;;22.90;53.80;;;;;;5065006;28;20822;-44
2022/10/06 01:34:28;;;;;;;2.33;0.10;;;22.80;53.70;;;;;;5046875;28;20124;-43
2022/10/06 01:36:55;;;;;;;4.93;0.52;;;22.80;53.70;;;;;;5056155;28;20127;-45
2022/10/06 01:39:22;;;;;;;2.28;0.10;;;22.80;53.60;;;;;;5065645;28;20045;-43
2022/10/06 01:41:51;;;;;;;2.50;0.45;;;22.80;53.60;;;;;;5066220;28;20420;-45
2022/10/06 01:44:18;;;;;;;4.78;0.85;;;22.80;53.60;;;;;;5066977;28;20119;-44
2022/10/06 01:46:45;;;;;;;1.33;0.15;;;22.80;53.60;;;;;;5054548;28;20044;-43
2022/10/06 01:49:12;;;;;;;3.53;0.20;;;22.80;53.50;;;;;;5047471;28;20134;-44
2022/10/06 01:51:39;;;;;;;2.22;0.30;;;22.80;53.50;;;;;;5053018;28;20140;-47
2022/10/06 01:54:06;;;;;;;4.55;0.80;;;22.80;53.50;;;;;;5055777;28;20047;-44
2022/10/06 01:56:33;;;;;;;1.80;0.20;;;22.70;53.40;;;;;;5065205;28;20523;-46
2022/10/06 01:59:01;;;;;;;1.67;0.20;;;22.70;53.40;;;;;;5065647;28;20040;-43
2022/10/06 02:01:29;;;;;;;9.35;0.52;;;22.70;53.40;;;;;;5059979;28;20127;-43
2022/10/06 02:03:55;;;;;;;2.15;0.10;;;22.70;53.40;;;;;;5067192;28;20052;-43
2022/10/06 02:06:23;;;;;;;1.95;0.40;;;22.70;53.40;;;;;;5065749;28;20047;-43
2022/10/06 02:08:50;;;;;;;2.67;0.10;;;22.60;53.30;;;;;;5067257;28;20048;-43
2022/10/06 02:11:18;;;;;;;1.73;0.10;;;22.60;53.30;;;;;;5065278;28;20070;-44
2022/10/06 02:13:47;;;;;;;2.45;0.30;;;22.60;53.20;;;;;;5065129;28;20057;-47
2022/10/06 02:16:16;;;;;;;2.00;0.30;;;22.60;53.20;;;;;;5065362;28;20040;-44
2022/10/06 02:18:43;;;;;;;5.15;0.30;;;22.60;53.20;;;;;;5057317;28;20045;-44
2022/10/06 02:21:15;;;;;;;2.47;0.32;;;22.60;53.20;;;;;;5047344;28;20045;-44
2022/10/06 02:23:42;;;;;;;1.77;0.55;;;22.60;53.20;;;;;;5060819;28;20067;-46
2022/10/06 02:26:09;;;;;;;2.22;0.30;;;22.50;53.20;;;;;;5062352;28;20056;-43
2022/10/06 02:28:36;;;;;;;3.22;0.60;;;22.60;53.20;;;;;;5053069;28;20055;-44
2022/10/06 02:31:08;;;;;;;5.32;0.22;;;22.60;53.30;;;;;;5051902;28;20108;-43
2022/10/06 02:33:38;;;;;;;4.20;0.60;;;22.50;53.20;;;;;;5060584;28;20087;-43
2022/10/06 02:36:07;;;;;;;14.52;1.30;;;22.60;53.30;;;;;;5052253;28;20613;-44
2022/10/06 02:38:34;;;;;;;1.75;0.10;;;22.50;53.40;;;;;;5070521;28;20056;-44
2022/10/06 02:41:06;;;;;;;1.77;0.20;;;22.50;53.50;;;;;;5068297;28;20050;-44
2022/10/06 02:43:34;;;;;;;3.15;0.17;;;22.50;53.50;;;;;;5069009;28;20036;-45
2022/10/06 02:46:04;;;;;;;2.72;0.10;;;22.50;53.60;;;;;;5052969;28;20041;-43
2022/10/06 02:48:32;;;;;;;0.68;0.10;;;22.50;53.60;;;;;;5052829;28;20071;-43
2022/10/06 02:51:02;;;;;;;4.57;0.17;;;22.50;53.60;;;;;;5068494;28;20064;-44
2022/10/06 02:53:29;;;;;;;3.63;0.20;;;22.40;53.50;;;;;;5056164;28;20048;-44
2022/10/06 02:56:00;;;;;;;2.22;0.35;;;22.40;53.50;;;;;;5067825;28;20036;-44
2022/10/06 02:58:29;;;;;;;3.55;0.20;;;22.50;53.50;;;;;;5059248;28;20045;-41
2022/10/06 03:01:02;;;;;;;8.15;0.57;;;22.40;53.10;;;;;;5049464;28;20048;-42
2022/10/06 03:03:29;;;;;;;2.58;0.20;;;22.40;53.70;;;;;;5057278;28;20069;-42
2022/10/06 03:06:02;;;;;;;2.45;0.22;;;22.40;53.90;;;;;;5067490;28;20048;-43
2022/10/06 03:08:29;;;;;;;4.05;1.58;;;22.50;54.00;;;;;;5058883;28;20123;-42
2022/10/06 03:11:01;;;;;;;6.90;0.43;;;22.50;54.00;;;;;;5057732;28;20045;-42
2022/10/06 03:13:30;;;;;;;5.30;0.25;;;22.50;53.90;;;;;;5072581;28;20127;-42
2022/10/06 03:15:57;;;;;;;4.35;0.20;;;22.50;53.80;;;;;;5060180;28;20140;-46
2022/10/06 03:18:24;;;;;;;6.85;0.25;;;22.60;53.90;;;;;;5048453;28;20055;-48
2022/10/06 03:20:52;;;;;;;4.03;0.10;;;22.60;53.80;;;;;;5067072;28;20040;-41
2022/10/06 03:23:21;;;;;;;3.70;0.32;;;22.60;53.70;;;;;;5055106;28;20132;-41
2022/10/06 03:25:56;;;;;;;2.22;0.20;;;22.70;53.50;;;;;;5047711;28;20861;-41
2022/10/06 03:28:23;;;;;;;5.00;0.17;;;22.80;53.20;;;;;;5062562;28;20068;-41
2022/10/06 03:30:50;;;;;;;5.78;0.40;;;22.80;53.00;;;;;;5067794;28;20148;-42
2022/10/06 03:33:18;;;;;;;1.52;0.10;;;22.80;52.80;;;;;;5068667;28;20041;-41
2022/10/06 03:35:45;;;;;;;7.05;0.45;;;22.80;52.70;;;;;;5067612;28;20098;-42
2022/10/06 03:38:12;;;;;;;4.35;0.30;;;22.80;52.50;;;;;;5067721;28;20660;-41
2022/10/06 03:40:40;;;;;;;2.83;0.30;;;22.80;52.40;;;;;;5066900;28;20072;-41
2022/10/06 03:43:09;;;;;;;4.60;1.50;;;22.80;52.30;;;;;;5067466;28;20041;-42
2022/10/06 03:45:37;;;;;;;7.30;0.47;;;22.80;52.20;;;;;;5063361;28;20390;-41
2022/10/06 03:48:04;;;;;;;6.15;0.10;;;22.80;52.20;;;;;;5049508;28;20079;-41
2022/10/06 03:50:31;;;;;;;5.72;0.10;;;22.80;52.10;;;;;;5058475;28;20048;-41
2022/10/06 03:52:59;;;;;;;1.83;0.30;;;22.90;52.10;;;;;;5055509;28;20413;-41
2022/10/06 03:55:26;;;;;;;5.25;0.90;;;22.80;52.10;;;;;;5062281;28;20116;-41
2022/10/06 03:57:56;;;;;;;3.58;0.20;;;22.80;52.10;;;;;;5068736;28;20059;-41
2022/10/06 04:00:23;;;;;;;6.22;0.17;;;22.80;52.10;;;;;;5060377;28;20043;-42
2022/10/06 04:02:50;;;;;;;4.00;0.10;;;22.80;52.00;;;;;;5067113;28;20048;-42
2022/10/06 04:05:17;;;;;;;2.83;0.20;;;22.80;52.00;;;;;;5066897;28;20575;-41
2022/10/06 04:07:44;;;;;;;2.00;0.20;;;22.80;52.00;;;;;;5066736;28;20057;-42
2022/10/06 04:10:12;;;;;;;2.88;0.20;;;22.80;51.90;;;;;;5059286;28;20044;-42
2022/10/06 04:12:39;;;;;;;2.28;0.10;;;22.80;51.80;;;;;;5063150;28;20059;-42
2022/10/06 04:15:08;;;;;;;3.63;0.47;;;22.70;51.80;;;;;;5049314;28;20102;-41
2022/10/06 04:17:35;;;;;;;3.75;0.10;;;22.70;51.70;;;;;;5046836;28;20049;-42
2022/10/06 04:20:02;;;;;;;6.38;0.25;;;22.70;51.70;;;;;;5048751;28;20881;-41
2022/10/06 04:22:29;;;;;;;4.47;0.45;;;22.70;51.70;;;;;;5051988;28;20498;-42
2022/10/06 04:24:56;;;;;;;4.45;0.20;;;22.70;51.70;;;;;;5047311;28;20497;-41
2022/10/06 04:27:29;;;;;;;8.93;0.30;;;22.60;51.60;;;;;;5051193;28;20033;-41
2022/10/06 04:30:11;;;;;;;4.65;0.50;;;22.60;51.60;;;;;;5047477;28;20090;-42
2022/10/06 04:32:39;;;;;;;2.72;0.25;;;22.60;51.60;;;;;;5056347;28;20044;-42
2022/10/06 04:35:06;;;;;;;2.75;0.20;;;22.50;51.50;;;;;;5048704;28;20398;-41
2022/10/06 04:37:33;;;;;;;4.30;0.20;;;22.50;51.50;;;;;;5048463;28;20072;-41
2022/10/06 04:40:01;;;;;;;8.18;0.40;;;22.50;51.60;;;;;;5050836;28;20048;-42
2022/10/06 04:42:30;;;;;;;1.65;0.20;;;22.50;51.60;;;;;;5066021;28;20095;-42
2022/10/06 04:44:57;;;;;;;3.80;0.20;;;22.50;51.60;;;;;;5065959;28;20040;-42
2022/10/06 04:47:25;;;;;;;6.22;0.70;;;22.40;51.60;;;;;;5059700;28;20048;-42
2022/10/06 04:49:52;;;;;;;3.35;0.20;;;22.40;51.50;;;;;;5052472;28;20091;-42
2022/10/06 04:52:20;;;;;;;1.98;0.13;;;22.40;51.70;;;;;;5040052;28;20068;-43
2022/10/06 04:54:46;;;;;;;4.07;0.40;;;22.40;51.80;;;;;;5041008;28;20055;-42
2022/10/06 04:57:13;;;;;;;2.35;0.10;;;22.40;51.90;;;;;;5041725;28;20122;-42
2022/10/06 05:02:29;;;;;;;4.90;0.30;;;22.30;52.00;;;;;;5039305;28;20109;-42
2022/10/06 05:04:57;;;;;;;2.05;0.10;;;22.30;52.10;;;;;;5039321;28;20134;-42
2022/10/06 05:07:25;;;;;;;1.55;0.10;;;22.30;52.30;;;;;;5055886;28;20037;-42
2022/10/06 05:09:53;;;;;;;2.28;0.30;;;22.30;52.40;;;;;;5054232;28;20046;-42
2022/10/06 05:12:20;;;;;;;3.25;0.20;;;22.20;52.60;;;;;;5043633;28;20122;-42
2022/10/06 05:14:47;;;;;;;2.97;0.45;;;22.30;52.70;;;;;;5037187;28;20050;-42
2022/10/06 05:17:15;;;;;;;2.60;0.20;;;22.30;52.80;;;;;;5033454;28;20076;-42
2022/10/06 05:19:44;;;;;;;14.85;0.65;;;22.20;53.00;;;;;;5061781;28;20045;-43
2022/10/06 05:22:12;;;;;;;2.70;0.50;;;22.20;53.20;;;;;;5043165;28;20045;-44
2022/10/06 05:24:39;;;;;;;5.78;0.57;;;22.20;53.30;;;;;;5061186;28;20043;-43
2022/10/06 05:27:06;;;;;;;4.45;0.30;;;22.20;53.30;;;;;;5048730;28;20571;-43
2022/10/06 05:29:35;;;;;;;2.33;0.17;;;22.30;53.30;;;;;;5043867;28;20052;-43
2022/10/06 05:32:03;;;;;;;2.50;0.28;;;22.30;53.30;;;;;;5048540;28;20099;-43
2022/10/06 05:34:31;;;;;;;8.02;0.60;;;22.30;53.30;;;;;;5046469;28;20177;-43
2022/10/06 05:36:59;;;;;;;3.80;0.28;;;22.40;53.30;;;;;;5045864;28;20044;-42
2022/10/06 05:39:26;;;;;;;2.08;0.20;;;22.40;53.30;;;;;;5047840;28;20117;-43
2022/10/06 05:41:56;;;;;;;5.07;0.35;;;22.40;53.20;;;;;;5046284;28;20050;-42
2022/10/06 05:44:25;;;;;;;9.15;1.13;;;22.40;53.10;;;;;;5042437;28;20038;-56
2022/10/06 05:46:53;;;;;;;10.75;0.95;;;22.30;50.00;;;;;;5043773;28;20049;-47
2022/10/06 05:49:20;;;;;;;7.75;0.55;;;22.00;48.50;;;;;;5049279;28;20064;-46
2022/10/06 05:51:59;;;;;;;5.47;0.52;;;21.70;48.10;;;;;;5058757;28;20068;-44
2022/10/06 05:54:31;;;;;;;11.65;0.77;;;21.30;48.10;;;;;;5050959;28;20037;-47
2022/10/06 05:56:58;;;;;;;11.27;1.40;;;21.00;48.40;;;;;;5057247;28;20094;-46
2022/10/06 05:59:25;;;;;;;10.68;2.58;;;20.70;48.60;;;;;;5051624;28;20072;-47
2022/10/06 06:01:55;;;;;;;13.93;0.65;;;20.40;48.90;;;;;;5047135;28;20136;-43
2022/10/06 06:04:37;;;;;;;12.65;1.15;;;20.20;49.40;;;;;;5055888;28;20046;-44
2022/10/06 06:07:05;;;;;;;8.27;0.80;;;20.00;49.70;;;;;;5064323;28;20044;-46
2022/10/06 06:09:33;;;;;;;12.55;2.53;;;19.90;49.80;;;;;;5050420;28;20815;-52
2022/10/06 06:12:02;;;;;;;6.68;0.22;;;19.60;50.30;;;;;;5059866;28;20052;-47
2022/10/06 06:17:53;;;;;;;11.98;1.10;;;19.80;53.10;;;;;;4997115;28;20085;-47
2022/10/06 06:20:20;;;;;;;10.85;0.70;;;20.00;53.60;;;;;;4995775;28;20546;-45
2022/10/06 06:22:54;;;;;;;4.03;0.40;;;20.10;53.80;;;;;;4986254;28;20514;-46
2022/10/06 06:25:23;;;;;;;7.07;0.32;;;20.30;53.90;;;;;;4991531;28;20050;-45
2022/10/06 06:27:51;;;;;;;2.92;1.60;;;20.50;53.80;;;;;;5003157;28;20046;-44
2022/10/06 06:30:18;;;;;;;8.70;0.98;;;20.60;53.80;;;;;;5007700;28;20089;-43
2022/10/06 06:32:45;;;;;;;9.77;0.90;;;20.80;53.70;;;;;;5001135;28;20132;-43
2022/10/06 06:35:12;;;;;;;4.13;0.90;;;20.80;53.70;;;;;;4994200;28;20047;-45
2022/10/06 06:37:39;;;;;;;7.50;0.60;;;21.00;53.60;;;;;;5011377;28;20056;-43
2022/10/06 06:40:08;;;;;;;5.57;0.68;;;21.00;53.50;;;;;;4987506;28;20131;-43
2022/10/06 06:42:38;;;;;;;6.28;0.80;;;21.10;53.40;;;;;;5007515;28;20089;-43
2022/10/06 06:45:25;;;;;;;7.55;0.70;;;21.20;53.30;;;;;;4990449;28;20098;-44
2022/10/06 06:48:04;;;;;;;3.70;0.30;;;21.30;53.30;;;;;;4992469;28;20053;-43
2022/10/06 06:50:33;;;;;;;4.45;0.77;;;21.30;53.20;;;;;;4988026;28;20093;-46
2022/10/06 06:53:01;;;;;;;1.92;0.30;;;21.40;53.10;;;;;;4993104;28;20051;-48
2022/10/06 06:55:30;;;;;;;2.10;0.40;;;21.50;53.00;;;;;;4986021;28;20054;-48
2022/10/06 06:57:57;;;;;;;7.13;1.02;;;21.60;52.90;;;;;;5006326;28;20053;-47
2022/10/06 07:00:24;;;;;;;3.15;0.68;;;21.60;52.70;;;;;;4997888;28;20578;-47
2022/10/06 07:02:55;;;;;;;6.85;1.05;;;21.70;52.60;;;;;;4990768;28;20141;-43
2022/10/06 07:05:22;;;;;;;7.15;0.43;;;21.70;52.50;;;;;;4994129;28;20054;-47
2022/10/06 07:07:50;;;;;;;5.35;0.45;;;21.80;52.40;;;;;;5010666;28;20042;-48
2022/10/06 07:10:17;;;;;;;6.38;0.57;;;21.80;52.20;;;;;;4991007;28;20466;-48
2022/10/06 07:12:47;;;;;;;7.30;0.68;;;21.90;52.10;;;;;;4994421;28;20052;-47
2022/10/06 07:26:19;;;;;;;4.80;0.40;;;22.10;51.70;;;;;;5052320;28;20517;-48
2022/10/06 07:28:48;;;;;;;5.07;0.90;;;22.10;51.60;;;;;;5062325;28;20040;-49
2022/10/06 07:31:17;;;;;;;2.03;0.20;;;22.20;51.50;;;;;;5055475;28;20049;-49
2022/10/06 07:33:46;;;;;;;4.25;0.40;;;22.20;51.30;;;;;;5060258;28;20049;-49
2022/10/06 07:36:15;;;;;;;4.43;0.50;;;22.30;51.20;;;;;;5061814;28;20037;-47
2022/10/06 07:38:42;;;;;;;5.10;1.13;;;22.40;51.20;;;;;;5052287;28;20140;-51
2022/10/06 07:41:09;;;;;;;6.70;0.45;;;22.40;51.10;;;;;;5058700;28;20052;-43
2022/10/06 07:43:36;;;;;;;6.53;0.70;;;22.40;51.10;;;;;;5051684;28;20337;-48
2022/10/06 07:46:09;;;;;;;3.35;0.32;;;22.50;51.10;;;;;;5060204;28;20053;-49
2022/10/06 07:48:42;;;;;;;6.68;0.40;;;22.50;51.00;;;;;;5068979;28;20040;-49
2022/10/06 07:51:14;;;;;;;5.93;0.22;;;22.50;51.10;;;;;;5057334;28;20042;-50
2022/10/06 07:53:43;;;;;;;8.40;0.38;;;22.50;51.00;;;;;;5059833;28;20126;-49
2022/10/06 07:56:20;;;;;;;2.58;0.57;;;22.60;51.10;;;;;;5057441;28;20040;-51
2022/10/06 07:58:50;;;;;;;6.63;0.50;;;22.60;50.90;;;;;;5054417;28;20127;-55
2022/10/06 08:01:20;;;;;;;3.70;0.50;;;22.60;50.80;;;;;;5063640;28;20051;-52
2022/10/06 08:03:49;;;;;;;4.95;0.85;;;22.60;50.70;;;;;;5064551;28;20044;-51
2022/10/06 08:06:18;;;;;;;5.18;0.40;;;22.60;50.70;;;;;;5046625;28;20048;-54
2022/10/06 08:08:46;;;;;;;8.00;0.75;;;22.70;50.60;;;;;;5046537;28;20041;-48
2022/10/06 08:11:14;;;;;;;4.60;0.38;;;22.70;50.50;;;;;;5042116;28;20127;-43
2022/10/06 08:13:44;;;;;;;10.52;1.25;;;22.70;50.40;;;;;;5047443;28;20416;-44
2022/10/06 08:16:13;;;;;;;11.73;1.45;;;22.70;50.30;;;;;;5048011;28;20106;-44
2022/10/06 08:18:42;;;;;;;5.95;0.40;;;22.80;50.20;;;;;;5045436;28;20033;-47
2022/10/06 08:21:12;;;;;;;3.15;0.57;;;22.80;50.10;;;;;;5041891;28;20403;-45
2022/10/06 08:23:41;;;;;;;3.25;0.20;;;22.90;50.60;;;;;;5046289;28;20044;-45
2022/10/06 08:26:08;;;;;;;4.43;0.20;;;22.80;49.80;;;;;;5048914;28;20037;-47
2022/10/06 08:28:36;;;;;;;5.55;0.20;;;22.90;49.80;;;;;;5055623;28;20029;-46
2022/10/06 08:31:04;;;;;;;8.27;0.90;;;22.90;49.70;;;;;;5058598;28;20079;-46
2022/10/06 08:33:34;;;;;;;3.50;0.45;;;22.90;49.50;;;;;;5040483;28;20114;-46
2022/10/06 08:36:08;;;;;;;5.97;0.52;;;23.00;49.40;;;;;;5063232;28;20567;-47
2022/10/06 08:38:36;;;;;;;2.92;0.43;;;23.00;49.30;;;;;;5043809;28;20040;-45
2022/10/06 08:41:15;;;;;;;4.22;1.45;;;23.00;49.30;;;;;;5058861;28;20077;-45
2022/10/06 08:43:43;;;;;;;3.55;0.30;;;23.00;49.20;;;;;;5064564;28;20466;-47
2022/10/06 08:46:13;;;;;;;4.88;0.30;;;23.00;49.20;;;;;;5048850;28;20033;-47
2022/10/06 08:48:40;;;;;;;1.90;0.20;;;23.00;49.20;;;;;;5046490;28;20106;-49
2022/10/06 08:51:24;;;;;;;6.18;0.68;;;23.10;49.20;;;;;;5044063;28;20417;-47
2022/10/06 08:54:03;;;;;;;8.63;0.95;;;23.10;49.10;;;;;;5047281;28;20132;-49
2022/10/06 08:56:36;;;;;;;5.40;0.32;;;23.10;49.00;;;;;;5062835;28;20037;-49
2022/10/06 08:59:04;;;;;;;10.98;1.02;;;23.20;49.00;;;;;;5056271;28;20044;-48
2022/10/06 09:01:38;;;;;;;5.32;0.20;;;23.10;48.90;;;;;;5058062;28;20047;-48
2022/10/06 09:04:07;;;;;;;8.90;1.17;;;23.20;48.90;;;;;;5045017;28;20051;-49
2022/10/06 09:06:45;;;;;;;6.82;0.63;;;23.20;48.90;;;;;;5049301;28;20044;-46
2022/10/06 09:09:20;;;;;;;6.20;1.10;;;23.20;48.80;;;;;;5049694;28;20044;-47
2022/10/06 09:12:00;;;;;;;6.55;0.65;;;23.20;48.70;;;;;;5054917;28;20040;-46
2022/10/06 09:14:36;;;;;;;3.85;0.90;;;23.20;48.70;;;;;;5051808;28;20718;-47
2022/10/06 09:17:09;;;;;;;2.13;0.70;;;23.20;48.60;;;;;;5052557;28;20059;-45
2022/10/06 09:19:42;;;;;;;10.73;1.70;;;23.30;48.50;;;;;;5052380;28;20045;-44
2022/10/06 09:22:17;;;;;;;6.75;1.00;;;23.30;48.40;;;;;;5050044;28;20037;-44
2022/10/06 09:24:49;;;;;;;3.73;0.50;;;23.30;48.20;;;;;;5053283;28;20166;-44
2022/10/06 09:27:21;;;;;;;7.53;0.52;;;23.30;48.60;;;;;;5047781;28;20052;-42
2022/10/06 09:29:48;;;;;;;4.70;0.35;;;23.40;48.60;;;;;;5047510;28;20040;-42
2022/10/06 09:32:16;;;;;;;8.20;0.57;;;23.50;48.60;;;;;;5051091;28;20084;-42
2022/10/06 09:34:49;;;;;;;5.82;0.50;;;23.60;48.40;;;;;;5065196;28;20048;-43
2022/10/06 09:37:17;;;;;;;9.57;0.60;;;23.70;48.10;;;;;;5064196;28;20050;-42
2022/10/06 09:39:48;;;;;;;6.95;1.17;;;23.70;47.80;;;;;;5046537;28;20048;-43
2022/10/06 09:42:21;;;;;;;3.65;0.20;;;23.80;47.70;;;;;;5050241;28;20120;-43
2022/10/06 09:45:00;;;;;;;14.13;0.47;;;23.80;47.30;;;;;;5049413;28;20045;-42
2022/10/06 09:47:38;;;;;;;7.30;0.32;;;23.90;47.30;;;;;;5059411;28;20491;-43
2022/10/06 09:50:15;;;;;;;6.55;1.23;;;23.90;47.10;;;;;;5041529;28;20037;-42
2022/10/06 09:53:02;;;;;;;10.20;0.95;;;23.90;47.00;;;;;;5047697;28;20041;-42
2022/10/06 09:55:32;;;;;;;4.03;0.30;;;24.00;46.90;;;;;;5047583;28;20041;-41
2022/10/06 09:58:01;;;;;;;7.60;0.40;;;24.00;46.70;;;;;;5051636;28;20052;-42
2022/10/06 10:00:30;;;;;;;6.75;0.50;;;24.00;46.60;;;;;;5050204;28;20068;-42
2022/10/06 10:02:59;;;;;;;8.30;0.43;;;24.00;46.40;;;;;;5047753;28;20041;-42
2022/10/06 10:05:29;;;;;;;4.15;0.70;;;24.10;46.40;;;;;;5052616;28;20048;-42
2022/10/06 10:08:08;;;;;;;8.70;0.90;;;24.10;46.30;;;;;;5063932;28;20040;-44
2022/10/06 10:10:37;;;;;;;5.18;0.40;;;24.10;46.10;;;;;;5048349;28;20028;-42
2022/10/06 10:13:17;;;;;;;2.28;0.20;;;24.20;46.10;;;;;;5062691;28;20036;-42
2022/10/06 10:15:53;;;;;;;6.72;0.52;;;24.20;46.00;;;;;;5066890;28;20076;-42
2022/10/06 10:18:25;;;;;;;3.08;0.85;;;24.20;45.90;;;;;;5054196;28;20055;-41
2022/10/06 10:20:56;;;;;;;10.02;0.40;;;24.20;45.80;;;;;;5047129;28;20072;-41
2022/10/06 10:23:29;;;;;;;6.00;0.28;;;24.20;45.70;;;;;;5047589;28;20132;-41
2022/10/06 10:26:16;;;;;;;9.00;0.40;;;24.30;45.60;;;;;;5046733;28;20091;-42
2022/10/06 10:29:29;;;;;;;2.75;0.60;;;24.30;45.50;;;;;;5061703;28;20471;-43
2022/10/06 10:32:08;;;;;;;4.07;0.43;;;24.40;45.40;;;;;;5007852;28;20053;-41
2022/10/06 10:34:53;;;;;;;5.35;0.22;;;24.40;46.00;;;;;;5003699;28;20049;-42
2022/10/06 10:37:25;;;;;;;2.40;0.73;;;24.40;45.30;;;;;;5016423;28;20124;-42
2022/10/06 10:39:59;;;;;;;4.57;0.20;;;24.40;45.20;;;;;;5014519;28;20155;-42
2022/10/06 10:42:31;;;;;;;2.78;0.25;;;24.50;45.20;;;;;;5004557;28;20058;-44
2022/10/06 10:45:01;;;;;;;3.88;0.75;;;24.50;45.30;;;;;;5005952;28;20148;-42
2022/10/06 10:47:33;;;;;;;6.32;0.40;;;24.50;45.20;;;;;;5026220;28;20128;-42
2022/10/06 10:50:05;;;;;;;2.72;0.38;;;24.50;45.20;;;;;;5022477;28;20084;-42
2022/10/06 10:52:37;;;;;;;4.35;0.35;;;24.60;45.30;;;;;;5027179;28;20089;-41
2022/10/06 10:55:19;;;;;;;2.15;0.25;;;24.50;45.40;;;;;;5024206;28;20041;-42
2022/10/06 10:57:49;;;;;;;1.67;0.50;;;24.60;45.20;;;;;;5027230;28;20053;-42
2022/10/06 11:00:19;;;;;;;2.08;0.20;;;24.60;45.30;;;;;;5023752;28;20049;-42
2022/10/06 11:02:46;;;;;;;3.05;0.30;;;24.60;45.30;;;;;;5027074;28;20049;-42
2022/10/06 11:05:20;;;;;;;3.35;0.70;;;24.60;45.30;;;;;;5026998;28;20084;-42
2022/10/06 11:07:55;;;;;;;5.22;0.90;;;24.60;45.40;;;;;;5050168;28;20523;-41
2022/10/06 11:10:27;;;;;;;2.75;0.73;;;24.70;45.40;;;;;;5043414;28;20499;-42
2022/10/06 11:13:13;;;;;;;2.47;0.60;;;24.70;45.50;;;;;;5069432;28;20249;-42
2022/10/06 11:15:56;;;;;;;1.63;0.13;;;24.70;45.40;;;;;;5066794;28;20044;-43
2022/10/06 11:18:35;;;;;;;1.75;0.17;;;24.80;45.40;;;;;;5062014;28;20041;-42
2022/10/06 11:21:11;;;;;;;4.50;0.22;;;24.80;45.40;;;;;;5050143;28;20076;-42
2022/10/06 11:23:49;;;;;;;1.38;0.77;;;24.80;45.40;;;;;;5050109;28;20033;-42
2022/10/06 11:26:47;;;;;;;2.40;0.20;;;24.80;45.40;;;;;;5050009;28;20053;-42
2022/10/06 11:29:26;;;;;;;3.28;0.57;;;24.90;45.50;;;;;;5041516;28;20144;-42
2022/10/06 11:32:01;;;;;;;4.85;0.70;;;24.90;45.50;;;;;;5057959;28;20080;-42
2022/10/06 11:34:29;;;;;;;5.03;0.10;;;24.90;45.30;;;;;;5051821;28;20041;-42
2022/10/06 11:37:01;;;;;;;2.30;0.40;;;24.90;45.40;;;;;;5050055;28;20047;-43
2022/10/06 11:39:36;;;;;;;2.40;0.20;;;24.90;45.30;;;;;;5060317;28;20559;-42
2022/10/06 11:42:17;;;;;;;2.33;0.20;;;25.00;45.30;;;;;;5068975;28;20040;-42
2022/10/06 11:44:47;;;;;;;2.53;0.20;;;25.00;45.20;;;;;;5068960;28;20040;-42
2022/10/06 11:47:19;;;;;;;6.82;0.77;;;25.00;45.40;;;;;;5067349;28;20556;-42
2022/10/06 11:49:52;;;;;;;2.45;0.10;;;25.00;45.50;;;;;;5050551;28;20076;-42
2022/10/06 11:52:45;;;;;;;4.15;0.20;;;25.10;45.30;;;;;;5049366;28;20528;-42
2022/10/06 11:55:20;;;;;;;2.22;0.20;;;25.10;45.10;;;;;;5055425;28;20110;-42
2022/10/06 11:58:12;;;;;;;10.60;0.90;;;25.10;45.20;;;;;;5043329;28;20053;-42
2022/10/06 12:00:48;;;;;;;4.63;0.20;;;25.20;45.30;;;;;;5065827;28;20106;-42
2022/10/06 12:03:55;;;;;;;1.58;0.20;;;25.10;45.30;;;;;;5068343;28;20049;-41
2022/10/06 12:06:58;;;;;;;3.20;0.30;;;25.20;45.20;;;;;;5065922;28;20072;-41
2022/10/06 12:09:44;;;;;;;2.92;0.20;;;25.20;45.20;;;;;;5068152;28;20040;-41
2022/10/06 12:12:45;;;;;;;1.45;0.40;;;25.20;45.30;;;;;;5046334;28;20045;-41
2022/10/06 12:15:47;;;;;;;0.43;0.22;;;25.30;45.50;;;;;;5023065;28;20049;-42
2022/10/06 12:18:33;;;;;;;2.88;0.20;;;25.30;45.70;;;;;;5004350;28;20096;-41
2022/10/06 12:21:10;;;;;;;0.90;0.22;;;25.30;45.60;;;;;;5009305;28;20104;-41
2022/10/06 12:23:46;;;;;;;14.70;0.45;;;25.30;45.90;;;;;;5006718;28;20042;-47
2022/10/06 12:26:27;;;;;;;1.98;0.20;;;25.40;46.30;;;;;;5023974;28;20111;-47
2022/10/06 12:28:59;;;;;;;5.78;0.25;;;25.40;46.20;;;;;;5020163;28;20046;-47
2022/10/06 12:31:44;;;;;;;5.75;1.38;;;25.50;46.20;;;;;;5025298;28;20132;-47
2022/10/06 12:34:44;;;;;;;8.88;0.45;;;25.50;46.20;;;;;;5025600;28;20992;-48
2022/10/06 12:37:42;;;;;;;3.55;0.20;;;25.60;46.00;;;;;;5018174;28;20049;-48
2022/10/06 12:40:55;;;;;;;5.25;0.38;;;25.60;46.00;;;;;;4997138;28;20050;-48
2022/10/06 12:43:53;;;;;;;2.08;0.40;;;25.60;45.80;;;;;;5006080;28;20132;-49
2022/10/06 12:46:25;;;;;;;2.67;0.52;;;25.70;45.70;;;;;;5002385;28;20232;-49
2022/10/06 12:49:11;;;;;;;5.75;0.20;;;25.70;45.70;;;;;;5006919;28;20151;-48
2022/10/06 12:51:40;;;;;;;6.93;0.63;;;25.70;45.60;;;;;;5038015;28;20043;-46
2022/10/06 12:54:16;;;;;;;1.42;0.20;;;25.70;45.50;;;;;;5061841;28;20058;-45
2022/10/06 12:56:55;;;;;;;2.70;0.10;;;25.70;45.30;;;;;;5042396;28;20055;-47
2022/10/06 12:59:27;;;;;;;5.07;0.63;;;25.80;45.30;;;;;;5047645;28;20048;-50
2022/10/06 13:01:57;;;;;;;3.90;0.35;;;25.80;45.20;;;;;;5048313;28;20803;-48
2022/10/06 13:04:38;;;;;;;0.45;0.15;;;25.80;45.00;;;;;;5048556;28;20045;-46
2022/10/06 13:07:13;;;;;;;0.55;0.10;;;25.90;44.80;;;;;;5055120;28;20123;-48
2022/10/06 13:09:40;;;;;;;2.70;0.35;;;25.90;44.90;;;;;;5042596;28;20033;-47
2022/10/06 13:12:30;;;;;;;8.65;0.47;;;25.90;45.40;;;;;;5047122;28;20048;-49
2022/10/06 13:15:11;;;;;;;5.95;0.55;;;26.00;45.50;;;;;;5051661;28;20148;-54
2022/10/06 13:17:41;;;;;;;10.82;0.30;;;26.00;46.10;;;;;;5058372;28;20424;-50
2022/10/06 13:20:30;;;;;;;11.60;0.95;;;26.10;46.10;;;;;;5061829;28;20029;-44
2022/10/06 13:23:00;;;;;;;4.20;0.25;;;26.10;46.10;;;;;;5044006;28;20049;-45
2022/10/06 13:25:34;;;;;;;9.82;0.40;;;26.10;46.00;;;;;;5047742;28;20043;-48